createdAt,value
2023-08-30T00:01:55.700Z,13.50
2023-08-30T00:04:23.640Z,13.50
2023-08-30T00:06:50.486Z,13.50
2023-08-30T00:09:17.424Z,13.60
2023-08-30T00:11:44.252Z,13.70
2023-08-30T00:14:11.884Z,13.70
2023-08-30T00:16:39.767Z,13.60
2023-08-30T00:19:07.476Z,13.60
2023-08-30T00:21:34.316Z,13.50
2023-08-30T00:24:01.833Z,13.40
2023-08-30T00:26:28.670Z,13.50
2023-08-30T00:28:55.515Z,13.40
2023-08-30T00:31:22.579Z,13.40
2023-08-30T00:33:50.466Z,13.40
2023-08-30T00:36:19.537Z,13.30
2023-08-30T00:38:46.484Z,13.10
2023-08-30T00:41:13.307Z,13.10
2023-08-30T00:43:40.614Z,13.10
2023-08-30T00:46:07.531Z,13.10
2023-08-30T00:48:34.439Z,13.20
2023-08-30T00:51:01.320Z,13.20
2023-08-30T00:53:28.292Z,13.20
2023-08-30T00:55:55.241Z,13.10
2023-08-30T00:58:22.297Z,13.00
2023-08-30T01:00:49.324Z,13.00
2023-08-30T01:03:16.320Z,13.00
2023-08-30T01:05:43.216Z,12.90
2023-08-30T01:08:12.123Z,12.90
2023-08-30T01:10:45.807Z,13.00
2023-08-30T01:13:19.461Z,13.00
2023-08-30T01:15:49.203Z,13.20
2023-08-30T01:18:19.382Z,13.30
2023-08-30T01:20:47.866Z,13.40
2023-08-30T01:23:26.041Z,13.50
2023-08-30T01:26:05.379Z,13.50
2023-08-30T01:28:34.052Z,13.60
2023-08-30T01:31:01.799Z,13.70
2023-08-30T01:33:30.166Z,13.70
2023-08-30T01:36:00.995Z,13.70
2023-08-30T01:38:33.036Z,13.70
2023-08-30T01:41:02.388Z,13.70
2023-08-30T01:43:30.696Z,13.80
2023-08-30T01:45:58.700Z,13.80
2023-08-30T01:48:26.283Z,14.00
2023-08-30T01:50:53.323Z,14.00
2023-08-30T01:53:21.254Z,14.00
2023-08-30T01:55:48.304Z,14.00
2023-08-30T01:58:15.357Z,14.00
2023-08-30T02:00:42.291Z,14.10
2023-08-30T02:03:13.695Z,14.10
2023-08-30T02:05:53.465Z,14.10
2023-08-30T02:08:23.362Z,14.10
2023-08-30T02:10:55.102Z,14.10
2023-08-30T02:13:27.965Z,14.10
2023-08-30T02:16:00.209Z,14.10
2023-08-30T02:21:03.048Z,14.10
2023-08-30T02:23:29.888Z,14.10
2023-08-30T02:25:56.996Z,14.10
2023-08-30T02:28:24.119Z,14.10
2023-08-30T02:30:54.077Z,14.10
2023-08-30T02:33:20.884Z,14.00
2023-08-30T02:35:47.779Z,13.90
2023-08-30T02:38:14.666Z,13.90
2023-08-30T02:40:41.604Z,13.80
2023-08-30T02:43:08.454Z,13.80
2023-08-30T02:45:36.003Z,13.90
2023-08-30T02:48:02.971Z,13.90
2023-08-30T02:50:29.869Z,13.90
2023-08-30T02:52:56.939Z,14.00
2023-08-30T02:55:23.860Z,14.00
2023-08-30T02:57:50.678Z,14.00
2023-08-30T03:00:17.701Z,14.00
2023-08-30T03:02:44.713Z,14.00
2023-08-30T03:05:13.280Z,14.00
2023-08-30T03:07:40.140Z,14.10
2023-08-30T03:10:07.583Z,14.00
2023-08-30T03:12:34.544Z,14.10
2023-08-30T03:15:01.532Z,14.10
2023-08-30T03:17:30.405Z,14.10
2023-08-30T03:19:59.354Z,14.10
2023-08-30T03:22:26.204Z,14.10
2023-08-30T03:24:53.102Z,14.20
2023-08-30T03:27:20.973Z,14.20
2023-08-30T03:29:47.835Z,14.10
2023-08-30T03:32:19.001Z,14.20
2023-08-30T03:34:46.896Z,14.20
2023-08-30T03:37:16.187Z,14.20
2023-08-30T03:39:43.468Z,14.20
2023-08-30T03:42:10.549Z,14.20
2023-08-30T03:44:39.521Z,14.20
2023-08-30T03:47:06.798Z,14.20
2023-08-30T03:49:33.631Z,14.20
2023-08-30T03:52:00.632Z,14.20
2023-08-30T03:54:27.517Z,14.20
2023-08-30T03:56:54.452Z,14.20
2023-08-30T03:59:22.891Z,14.10
2023-08-30T04:01:49.842Z,14.20
2023-08-30T04:04:16.788Z,14.20
2023-08-30T04:06:43.627Z,14.20
2023-08-30T04:09:11.513Z,14.20
2023-08-30T04:11:38.496Z,14.20
2023-08-30T04:14:05.386Z,14.10
2023-08-30T04:16:32.217Z,14.20
2023-08-30T04:18:59.096Z,14.20
2023-08-30T04:21:25.946Z,14.20
2023-08-30T04:23:52.819Z,14.20
2023-08-30T04:26:19.677Z,14.20
2023-08-30T04:28:46.539Z,14.20
2023-08-30T04:31:13.423Z,14.20
2023-08-30T04:33:40.745Z,14.30
2023-08-30T04:36:08.850Z,14.30
2023-08-30T04:38:39.916Z,14.30
2023-08-30T04:41:12.624Z,14.30
2023-08-30T04:43:39.528Z,14.20
2023-08-30T04:46:06.445Z,14.20
2023-08-30T04:48:33.331Z,14.30
2023-08-30T04:51:04.512Z,14.30
2023-08-30T04:53:31.640Z,14.30
2023-08-30T04:55:58.577Z,14.30
2023-08-30T04:58:25.425Z,14.30
2023-08-30T05:00:52.308Z,14.30
2023-08-30T05:03:19.289Z,14.30
2023-08-30T05:05:47.246Z,14.30
2023-08-30T05:08:14.090Z,14.20
2023-08-30T05:10:41.838Z,14.20
2023-08-30T05:13:08.900Z,14.20
2023-08-30T05:15:35.710Z,14.20
2023-08-30T05:18:02.607Z,14.20
2023-08-30T05:20:29.507Z,14.20
2023-08-30T05:22:56.435Z,14.10
2023-08-30T05:25:23.313Z,14.20
2023-08-30T05:27:50.235Z,14.20
2023-08-30T05:30:17.672Z,14.20
2023-08-30T05:32:44.590Z,14.30
2023-08-30T05:35:11.546Z,14.30
2023-08-30T05:37:38.413Z,14.30
2023-08-30T05:40:05.990Z,14.40
2023-08-30T05:42:32.885Z,14.60
2023-08-30T05:44:59.702Z,14.70
2023-08-30T05:47:26.637Z,14.80
2023-08-30T05:49:53.583Z,15.00
2023-08-30T05:52:20.486Z,15.30
2023-08-30T05:54:47.377Z,15.70
2023-08-30T05:57:14.330Z,16.30
2023-08-30T05:59:41.163Z,16.70
2023-08-30T06:02:08.057Z,17.20
2023-08-30T06:04:34.979Z,17.70
2023-08-30T06:07:01.805Z,17.60
2023-08-30T06:09:28.643Z,17.40
2023-08-30T06:11:55.520Z,17.20
2023-08-30T06:14:23.041Z,17.30
2023-08-30T06:16:50.238Z,17.80
2023-08-30T06:19:17.222Z,18.10
2023-08-30T06:21:44.051Z,18.40
2023-08-30T06:24:10.942Z,18.90
2023-08-30T06:26:37.772Z,19.20
2023-08-30T06:29:05.498Z,19.60
2023-08-30T06:31:33.890Z,20.10
2023-08-30T06:34:01.151Z,20.60
2023-08-30T06:36:28.111Z,21.30
2023-08-30T06:38:55.217Z,21.70
2023-08-30T06:41:22.058Z,22.10
2023-08-30T06:43:48.886Z,22.10
2023-08-30T06:46:15.807Z,22.00
2023-08-30T06:48:42.789Z,22.40
2023-08-30T06:51:09.697Z,22.20
2023-08-30T06:53:36.600Z,21.10
2023-08-30T06:56:03.743Z,20.10
2023-08-30T06:58:31.472Z,19.10
2023-08-30T07:00:58.881Z,18.60
2023-08-30T07:03:25.974Z,18.20
2023-08-30T07:05:53.597Z,18.00
2023-08-30T07:08:20.501Z,17.80
2023-08-30T07:10:47.638Z,17.80
2023-08-30T07:13:14.834Z,17.60
2023-08-30T07:15:43.177Z,17.50
2023-08-30T07:18:10.985Z,17.50
2023-08-30T07:20:40.591Z,17.50
2023-08-30T07:23:10.770Z,17.50
2023-08-30T07:25:39.109Z,17.70
2023-08-30T07:28:07.421Z,17.80
2023-08-30T07:30:36.653Z,17.90
2023-08-30T07:33:04.921Z,18.00
2023-08-30T07:35:33.992Z,18.10
2023-08-30T07:38:01.053Z,18.10
2023-08-30T07:40:29.690Z,18.10
2023-08-30T07:43:04.835Z,18.10
2023-08-30T07:45:31.767Z,18.20
2023-08-30T07:47:58.714Z,18.20
2023-08-30T07:50:25.700Z,18.20
2023-08-30T07:52:52.596Z,18.10
2023-08-30T07:55:19.443Z,18.00
2023-08-30T07:57:47.207Z,17.60
2023-08-30T08:00:14.715Z,17.20
2023-08-30T08:02:42.220Z,16.90
2023-08-30T08:05:09.374Z,16.60
2023-08-30T08:07:40.010Z,16.30
2023-08-30T08:10:07.647Z,16.10
2023-08-30T08:12:35.259Z,16.00
2023-08-30T08:15:03.137Z,15.90
2023-08-30T08:17:30.448Z,16.00
2023-08-30T08:19:57.365Z,16.00
2023-08-30T08:22:24.274Z,15.90
2023-08-30T08:24:52.799Z,15.90
2023-08-30T08:27:19.762Z,15.90
2023-08-30T08:29:46.688Z,15.80
2023-08-30T08:32:13.539Z,15.70
2023-08-30T08:34:40.346Z,15.60
2023-08-30T08:37:08.065Z,15.50
2023-08-30T08:39:35.410Z,15.50
2023-08-30T08:42:03.835Z,15.60
2023-08-30T08:44:33.321Z,15.60
2023-08-30T08:47:01.743Z,15.70
2023-08-30T08:49:30.624Z,15.70
2023-08-30T08:51:58.355Z,15.70
2023-08-30T08:54:26.201Z,15.70
2023-08-30T08:56:54.212Z,15.70
2023-08-30T08:59:22.425Z,15.70
2023-08-30T09:01:50.365Z,15.70
2023-08-30T09:04:17.322Z,15.60
2023-08-30T09:06:48.531Z,15.60
2023-08-30T09:09:16.170Z,15.70
2023-08-30T09:14:12.830Z,15.60
2023-08-30T09:16:39.807Z,15.50
2023-08-30T09:19:11.019Z,15.50
2023-08-30T09:21:38.554Z,15.40
2023-08-30T09:24:07.403Z,15.40
2023-08-30T09:26:36.903Z,15.40
2023-08-30T09:29:07.713Z,15.40
2023-08-30T09:31:38.836Z,15.50
2023-08-30T09:34:06.401Z,15.60
2023-08-30T09:36:40.786Z,15.60
2023-08-30T09:39:11.309Z,15.60
2023-08-30T09:41:41.499Z,15.60
2023-08-30T09:44:14.820Z,15.50
2023-08-30T09:46:54.068Z,15.40
2023-08-30T09:49:23.610Z,15.30
2023-08-30T09:51:53.822Z,15.30
2023-08-30T09:54:37.280Z,15.20
2023-08-30T09:57:06.715Z,15.30
2023-08-30T09:59:34.659Z,15.20
2023-08-30T10:02:02.607Z,15.20
2023-08-30T10:04:31.015Z,15.20
2023-08-30T10:07:01.226Z,15.20
2023-08-30T10:09:31.809Z,15.10
2023-08-30T10:11:59.719Z,15.00
2023-08-30T10:14:26.593Z,15.00
2023-08-30T10:17:04.546Z,14.90
2023-08-30T10:19:32.635Z,14.90
2023-08-30T10:22:04.792Z,15.00
2023-08-30T10:24:48.235Z,15.10
2023-08-30T10:27:20.672Z,15.10
2023-08-30T10:29:49.819Z,15.10
2023-08-30T10:32:23.739Z,15.20
2023-08-30T10:34:51.680Z,15.30
2023-08-30T10:37:27.300Z,15.30
2023-08-30T10:39:54.575Z,15.30
2023-08-30T10:42:24.583Z,15.40
2023-08-30T10:45:12.185Z,15.30
2023-08-30T10:47:40.903Z,15.30
2023-08-30T10:50:14.407Z,15.50
2023-08-30T10:52:41.644Z,15.40
2023-08-30T10:55:14.292Z,15.40
2023-08-30T10:57:45.877Z,15.30
2023-08-30T11:00:23.211Z,15.30
2023-08-30T11:02:51.542Z,15.30
2023-08-30T11:05:23.732Z,15.30
2023-08-30T11:07:52.133Z,15.40
2023-08-30T11:10:20.061Z,15.50
2023-08-30T11:12:48.234Z,15.70
2023-08-30T11:15:18.208Z,15.80
2023-08-30T11:17:45.548Z,16.00
2023-08-30T11:20:21.783Z,16.30
2023-08-30T11:22:50.366Z,16.50
2023-08-30T11:25:18.268Z,16.60
2023-08-30T11:27:45.618Z,16.60
2023-08-30T11:30:13.189Z,16.60
2023-08-30T11:32:41.659Z,16.80
2023-08-30T11:35:09.309Z,16.90
2023-08-30T11:37:36.254Z,17.10
2023-08-30T11:40:05.322Z,17.20
2023-08-30T11:42:33.350Z,17.20
2023-08-30T11:45:01.174Z,17.20
2023-08-30T11:47:28.638Z,17.10
2023-08-30T11:49:57.550Z,16.80
2023-08-30T11:52:25.397Z,16.60
2023-08-30T11:54:52.862Z,16.40
2023-08-30T11:57:20.411Z,16.10
2023-08-30T11:59:48.985Z,16.00
2023-08-30T12:02:17.480Z,15.90
2023-08-30T12:04:46.821Z,15.90
2023-08-30T12:07:28.138Z,16.00
2023-08-30T12:10:18.653Z,16.00
2023-08-30T12:12:48.638Z,16.10
2023-08-30T12:15:16.736Z,16.20
2023-08-30T12:17:43.912Z,16.40
2023-08-30T12:20:19.079Z,16.40
2023-08-30T12:22:46.057Z,16.40
2023-08-30T12:25:19.816Z,16.30
2023-08-30T12:27:47.754Z,16.20
2023-08-30T12:30:18.370Z,16.10
2023-08-30T12:32:48.524Z,15.90
2023-08-30T12:35:16.150Z,15.90
2023-08-30T12:37:43.624Z,15.80
2023-08-30T12:40:11.027Z,15.70
2023-08-30T12:42:38.668Z,15.60
2023-08-30T12:45:06.432Z,15.60
2023-08-30T12:47:33.339Z,15.70
2023-08-30T12:50:00.247Z,15.70
2023-08-30T12:52:27.262Z,15.80
2023-08-30T12:54:55.333Z,15.90
2023-08-30T12:57:22.358Z,16.00
2023-08-30T12:59:49.266Z,16.10
2023-08-30T13:02:16.234Z,16.30
2023-08-30T13:04:43.397Z,16.50
2023-08-30T13:07:10.300Z,16.70
2023-08-30T13:09:37.160Z,16.80
2023-08-30T13:12:04.987Z,16.80
2023-08-30T13:14:32.029Z,16.80
2023-08-30T13:16:59.483Z,16.80
2023-08-30T13:19:26.740Z,16.80
2023-08-30T13:21:53.605Z,16.80
2023-08-30T13:24:20.471Z,16.90
2023-08-30T13:26:47.530Z,16.90
2023-08-30T13:29:14.473Z,17.00
2023-08-30T13:31:41.288Z,16.90
2023-08-30T13:34:08.144Z,16.80
2023-08-30T13:36:35.023Z,16.70
2023-08-30T13:39:01.847Z,16.70
2023-08-30T13:41:28.803Z,16.60
2023-08-30T13:43:57.956Z,16.60
2023-08-30T13:46:26.200Z,16.60
2023-08-30T13:48:53.179Z,16.50
2023-08-30T13:51:24.586Z,16.40
2023-08-30T13:53:52.193Z,16.40
2023-08-30T13:56:20.138Z,16.30
2023-08-30T13:58:47.404Z,16.20
2023-08-30T14:01:14.244Z,16.10
2023-08-30T14:03:41.254Z,16.00
2023-08-30T14:06:08.224Z,16.00
2023-08-30T14:08:35.182Z,16.10
2023-08-30T14:11:02.646Z,16.20
2023-08-30T14:13:33.809Z,16.20
2023-08-30T14:16:04.988Z,16.10
2023-08-30T14:21:03.494Z,16.10
2023-08-30T14:23:31.238Z,16.30
2023-08-30T14:26:04.975Z,16.30
2023-08-30T14:28:31.831Z,16.40
2023-08-30T14:30:58.657Z,16.40
2023-08-30T14:33:25.485Z,16.50
2023-08-30T14:35:52.316Z,16.60
2023-08-30T14:38:20.758Z,16.70
2023-08-30T14:41:02.727Z,16.90
2023-08-30T14:43:30.194Z,17.30
2023-08-30T14:46:10.832Z,17.40
2023-08-30T14:48:38.962Z,17.40
2023-08-30T14:51:07.091Z,17.30
2023-08-30T14:53:34.208Z,17.30
2023-08-30T14:56:01.132Z,17.30
2023-08-30T14:58:28.921Z,17.30
2023-08-30T15:00:55.741Z,17.30
2023-08-30T15:03:22.775Z,17.40
2023-08-30T15:05:59.600Z,17.50
2023-08-30T15:08:26.570Z,17.40
2023-08-30T15:10:53.504Z,17.40
2023-08-30T15:13:21.460Z,17.40
2023-08-30T15:15:48.502Z,17.40
2023-08-30T15:18:16.246Z,17.40
2023-08-30T15:20:43.761Z,17.40
2023-08-30T15:23:18.990Z,17.50
2023-08-30T15:25:50.227Z,17.60
2023-08-30T15:28:17.402Z,17.70
2023-08-30T15:30:45.652Z,17.80
2023-08-30T15:33:15.335Z,17.90
2023-08-30T15:35:47.526Z,18.00
2023-08-30T15:38:15.446Z,18.10
2023-08-30T15:40:42.834Z,18.10
2023-08-30T15:43:10.071Z,18.00
2023-08-30T15:45:37.548Z,18.00
2023-08-30T15:48:04.923Z,18.00
2023-08-30T15:50:31.830Z,18.10
2023-08-30T15:52:58.782Z,18.20
2023-08-30T15:55:29.750Z,18.20
2023-08-30T15:57:56.712Z,18.10
2023-08-30T16:00:24.053Z,18.00
2023-08-30T16:02:53.581Z,18.00
2023-08-30T16:05:20.804Z,18.00
2023-08-30T16:07:47.659Z,17.90
2023-08-30T16:10:14.636Z,17.80
2023-08-30T16:12:41.628Z,17.80
2023-08-30T16:15:08.749Z,17.80
2023-08-30T16:29:19.387Z,17.40
2023-08-30T16:31:46.250Z,17.20
2023-08-30T16:34:13.151Z,17.20
2023-08-30T16:36:40.018Z,17.00
2023-08-30T16:39:07.861Z,17.00
2023-08-30T16:41:34.901Z,17.00
2023-08-30T16:44:01.751Z,17.00
2023-08-30T16:46:28.615Z,16.90
2023-08-30T16:48:55.435Z,16.90
2023-08-30T16:51:22.349Z,16.80
2023-08-30T16:53:49.395Z,16.70
2023-08-30T16:56:17.135Z,16.70
2023-08-30T16:58:44.082Z,16.80
2023-08-30T17:01:11.707Z,16.70
2023-08-30T17:03:38.736Z,16.70
2023-08-30T17:06:06.800Z,16.70
2023-08-30T17:08:33.908Z,16.80
2023-08-30T17:11:08.428Z,16.80
2023-08-30T17:13:35.760Z,16.80
2023-08-30T17:16:04.322Z,16.60
2023-08-30T17:18:32.761Z,16.60
2023-08-30T17:20:59.903Z,16.60
2023-08-30T17:23:26.775Z,16.60
2023-08-30T17:25:53.716Z,16.40
2023-08-30T17:30:46.769Z,16.50
2023-08-30T17:33:14.153Z,16.40
2023-08-30T17:35:41.341Z,16.40
2023-08-30T17:38:08.183Z,16.30
2023-08-30T17:40:35.888Z,16.30
2023-08-30T17:43:06.061Z,16.40
2023-08-30T17:45:33.841Z,16.50
2023-08-30T17:48:01.285Z,16.30
2023-08-30T17:50:28.730Z,16.20
2023-08-30T17:52:55.589Z,16.10
2023-08-30T17:55:22.969Z,16.10
2023-08-30T17:57:49.905Z,15.90
2023-08-30T18:00:17.002Z,15.80
2023-08-30T18:02:46.804Z,15.60
2023-08-30T18:05:14.601Z,15.50
2023-08-30T18:07:41.666Z,15.40
2023-08-30T18:10:09.005Z,15.30
2023-08-30T18:12:35.864Z,15.20
2023-08-30T18:15:03.515Z,15.00
2023-08-30T18:17:32.198Z,14.90
2023-08-30T18:19:59.719Z,14.80
2023-08-30T18:22:26.660Z,14.60
2023-08-30T18:24:53.514Z,14.60
2023-08-30T18:27:20.674Z,14.60
2023-08-30T18:29:48.866Z,14.50
2023-08-30T18:32:16.648Z,14.40
2023-08-30T18:34:46.557Z,14.30
2023-08-30T18:37:13.451Z,14.20
2023-08-30T18:39:40.760Z,14.10
2023-08-30T18:42:07.925Z,14.00
2023-08-30T18:44:34.781Z,14.10
2023-08-30T18:47:01.651Z,14.00
2023-08-30T18:49:28.488Z,13.90
2023-08-30T18:51:55.527Z,13.80
2023-08-30T18:54:24.761Z,13.80
2023-08-30T18:56:51.925Z,13.70
2023-08-30T18:59:18.962Z,13.50
2023-08-30T19:01:45.805Z,13.40
2023-08-30T19:04:12.679Z,13.30
2023-08-30T19:06:39.485Z,13.30
2023-08-30T19:09:06.842Z,13.20
2023-08-30T19:11:35.010Z,13.30
2023-08-30T19:14:01.875Z,13.30
2023-08-30T19:16:30.630Z,13.30
2023-08-30T19:18:57.628Z,13.20
2023-08-30T19:21:24.538Z,13.20
2023-08-30T19:23:52.053Z,13.20
2023-08-30T19:26:19.127Z,13.20
2023-08-30T19:28:46.702Z,13.30
2023-08-30T19:31:13.632Z,13.40
2023-08-30T19:33:40.519Z,13.40
2023-08-30T19:36:07.398Z,13.30
2023-08-30T19:38:34.287Z,13.30
2023-08-30T19:41:01.155Z,13.30
2023-08-30T19:43:28.016Z,13.30
2023-08-30T19:46:03.406Z,13.30
2023-08-30T19:48:30.837Z,13.30
2023-08-30T19:50:58.479Z,13.30
2023-08-30T19:53:25.631Z,13.30
2023-08-30T19:55:53.299Z,13.30
2023-08-30T19:58:21.584Z,13.30
2023-08-30T20:00:50.216Z,13.30
2023-08-30T20:03:17.855Z,13.10
2023-08-30T20:05:51.887Z,13.20
2023-08-30T20:08:19.419Z,13.10
2023-08-30T20:10:47.482Z,13.10
2023-08-30T20:13:14.846Z,13.10
2023-08-30T20:15:43.032Z,13.10
2023-08-30T20:18:11.178Z,13.00
2023-08-30T20:20:39.539Z,13.10
2023-08-30T20:23:07.300Z,13.10
2023-08-30T20:25:36.608Z,13.10
2023-08-30T20:28:04.047Z,13.20
2023-08-30T20:30:31.053Z,13.30
2023-08-30T20:32:58.000Z,13.30
2023-08-30T20:35:25.092Z,13.30
2023-08-30T20:37:54.728Z,13.30
2023-08-30T20:40:21.608Z,13.30
2023-08-30T20:42:48.461Z,13.30
2023-08-30T20:45:15.882Z,13.30
2023-08-30T20:47:42.798Z,13.30
2023-08-30T20:50:12.633Z,13.30
2023-08-30T20:52:39.565Z,13.30
2023-08-30T20:55:08.264Z,13.30
2023-08-30T20:57:35.814Z,13.30
2023-08-30T21:00:06.879Z,13.30
2023-08-30T21:02:35.403Z,13.30
2023-08-30T21:05:02.954Z,13.40
2023-08-30T21:07:29.879Z,13.40
2023-08-30T21:09:56.905Z,13.40
2023-08-30T21:12:23.738Z,13.40
2023-08-30T21:14:50.594Z,13.40
2023-08-30T21:17:17.521Z,13.40
2023-08-30T21:19:44.448Z,13.40
2023-08-30T21:22:11.344Z,13.40
2023-08-30T21:24:39.857Z,13.30
2023-08-30T21:27:06.684Z,13.30
2023-08-30T21:29:33.949Z,13.20
2023-08-30T21:32:01.016Z,13.20
2023-08-30T21:34:28.024Z,13.10
2023-08-30T21:36:55.296Z,13.10
2023-08-30T21:39:22.199Z,13.00
2023-08-30T21:41:49.102Z,13.00
2023-08-30T21:44:16.021Z,13.00
2023-08-30T21:46:45.406Z,12.90
2023-08-30T21:49:12.444Z,13.00
2023-08-30T21:51:39.363Z,13.00
2023-08-30T21:54:06.756Z,13.00
2023-08-30T21:56:34.908Z,12.90
2023-08-30T21:59:02.477Z,13.00
2023-08-30T22:01:29.677Z,12.90
2023-08-30T22:03:56.586Z,13.00
2023-08-30T22:06:23.535Z,13.00
2023-08-30T22:08:50.922Z,13.10
2023-08-30T22:11:17.810Z,13.10
2023-08-30T22:13:44.676Z,13.10
2023-08-30T22:16:11.599Z,13.10
2023-08-30T22:18:38.467Z,13.20
2023-08-30T22:21:05.327Z,13.20
2023-08-30T22:23:32.229Z,13.10
2023-08-30T22:25:59.177Z,13.20
2023-08-30T22:30:54.997Z,13.00
2023-08-30T22:33:22.171Z,13.10
2023-08-30T22:35:49.203Z,13.00
2023-08-30T22:38:16.060Z,13.10
2023-08-30T22:40:42.902Z,13.00
2023-08-30T22:43:11.021Z,12.90
2023-08-30T22:45:38.168Z,12.90
2023-08-30T22:48:06.665Z,12.80
2023-08-30T22:50:34.968Z,12.80
2023-08-30T22:53:01.838Z,12.70
2023-08-30T22:55:28.752Z,12.70
2023-08-30T22:57:56.117Z,12.70
2023-08-30T23:00:23.579Z,12.70
2023-08-30T23:02:52.021Z,12.60
2023-08-30T23:05:19.089Z,12.60
2023-08-30T23:07:46.570Z,12.50
2023-08-30T23:10:14.590Z,12.40
2023-08-30T23:12:42.180Z,12.40
2023-08-30T23:15:09.520Z,12.30
2023-08-30T23:17:44.710Z,12.30
2023-08-30T23:20:16.672Z,12.30
2023-08-30T23:22:44.207Z,12.30
2023-08-30T23:25:11.381Z,12.40
2023-08-30T23:27:38.301Z,12.30
2023-08-30T23:30:07.467Z,12.20
2023-08-30T23:32:34.753Z,12.20
2023-08-30T23:35:02.234Z,12.20
2023-08-30T23:37:29.793Z,12.20
2023-08-30T23:39:56.684Z,12.10
2023-08-30T23:42:23.680Z,12.20
2023-08-30T23:44:50.818Z,12.20
2023-08-30T23:47:17.683Z,12.20
2023-08-30T23:49:44.540Z,12.20
2023-08-30T23:52:11.413Z,12.00
2023-08-30T23:54:38.283Z,12.00
2023-08-30T23:57:05.359Z,12.00
2023-08-30T23:59:35.729Z,12.00
